createdAt,value
2018-12-03T00:01:25.206Z,9.60
2018-12-03T00:03:53.631Z,8.20
2018-12-03T00:06:22.617Z,8.73
2018-12-03T00:08:51.613Z,9.80
2018-12-03T00:11:21.160Z,10.10
2018-12-03T00:13:50.104Z,10.73
2018-12-03T00:16:19.360Z,9.23
2018-12-03T00:18:48.651Z,10.20
2018-12-03T00:21:18.206Z,10.05
2018-12-03T00:23:47.474Z,11.43
2018-12-03T00:26:17.026Z,11.33
2018-12-03T00:28:46.296Z,12.83
2018-12-03T00:31:15.325Z,12.00
2018-12-03T00:33:44.598Z,12.13
2018-12-03T00:36:14.001Z,12.58
2018-12-03T00:38:43.552Z,11.00
2018-12-03T00:41:13.275Z,14.00
2018-12-03T00:43:42.221Z,11.47
2018-12-03T00:46:11.480Z,12.63
2018-12-03T00:48:40.772Z,13.05
2018-12-03T00:51:10.314Z,12.70
2018-12-03T00:53:39.586Z,14.17
2018-12-03T00:56:08.522Z,16.30
2018-12-03T00:58:38.383Z,15.95
2018-12-03T01:01:07.345Z,16.53
2018-12-03T01:03:37.325Z,16.37
2018-12-03T01:06:06.019Z,16.77
2018-12-03T01:08:34.975Z,16.87
2018-12-03T01:11:04.072Z,16.77
2018-12-03T01:13:33.530Z,16.70
2018-12-03T01:16:03.042Z,15.17
2018-12-03T01:18:32.564Z,17.90
2018-12-03T01:21:01.849Z,15.53
2018-12-03T01:23:31.408Z,16.85
2018-12-03T01:26:00.451Z,16.73
2018-12-03T01:28:29.629Z,18.07
2018-12-03T01:30:58.906Z,14.40
2018-12-03T01:33:28.459Z,16.97
2018-12-03T01:35:57.731Z,16.27
2018-12-03T01:38:26.996Z,15.47
2018-12-03T01:40:55.997Z,17.20
2018-12-03T01:43:25.835Z,16.10
2018-12-03T01:45:55.525Z,15.93
2018-12-03T01:48:25.815Z,16.90
2018-12-03T01:50:55.408Z,16.20
2018-12-03T01:53:25.737Z,16.50
2018-12-03T01:55:55.307Z,16.20
2018-12-03T01:58:26.640Z,16.60
2018-12-03T02:00:55.927Z,16.30
2018-12-03T02:03:25.878Z,15.70
2018-12-03T02:05:55.463Z,17.50
2018-12-03T02:08:25.711Z,13.18
2018-12-03T02:10:55.287Z,16.93
2018-12-03T02:13:25.813Z,17.65
2018-12-03T02:15:55.528Z,18.02
2018-12-03T02:18:25.828Z,16.40
2018-12-03T02:20:55.389Z,16.82
2018-12-03T02:23:25.813Z,17.23
2018-12-03T02:25:55.424Z,16.40
2018-12-03T02:28:26.029Z,18.75
2018-12-03T02:30:55.546Z,15.90
2018-12-03T02:33:25.900Z,16.57
2018-12-03T02:35:55.545Z,16.50
2018-12-03T02:38:25.843Z,13.72
2018-12-03T02:40:55.481Z,16.47
2018-12-03T02:43:25.828Z,14.45
2018-12-03T02:45:55.098Z,17.10
2018-12-03T02:48:25.985Z,14.55
2018-12-03T02:50:55.233Z,11.83
2018-12-03T02:53:25.884Z,10.58
2018-12-03T02:55:55.443Z,13.40
2018-12-03T02:58:25.852Z,12.78
2018-12-03T03:00:55.131Z,13.20
2018-12-03T03:03:25.043Z,13.23
2018-12-03T03:05:54.573Z,13.03
2018-12-03T03:08:23.854Z,11.73
2018-12-03T03:10:53.410Z,11.40
2018-12-03T03:13:22.731Z,11.70
2018-12-03T03:15:52.093Z,11.10
2018-12-03T03:18:22.194Z,11.17
2018-12-03T03:20:51.688Z,10.83
2018-12-03T03:23:20.630Z,10.17
2018-12-03T03:25:49.889Z,11.10
2018-12-03T03:28:19.163Z,10.73
2018-12-03T03:30:48.773Z,10.63
2018-12-03T03:33:18.502Z,11.48
2018-12-03T03:35:47.958Z,11.50
2018-12-03T03:38:17.504Z,10.90
2018-12-03T03:40:46.448Z,11.23
2018-12-03T03:43:15.420Z,10.40
2018-12-03T03:45:44.730Z,10.67
2018-12-03T03:48:13.516Z,12.07
2018-12-03T03:50:42.780Z,11.73
2018-12-03T03:53:12.053Z,12.40
2018-12-03T03:55:41.941Z,12.73
2018-12-03T03:58:11.199Z,12.63
2018-12-03T04:00:40.777Z,12.50
2018-12-03T04:03:10.220Z,12.37
2018-12-03T04:05:39.797Z,11.93
2018-12-03T04:08:09.059Z,12.20
2018-12-03T04:10:38.915Z,12.60
2018-12-03T04:13:08.346Z,10.20
2018-12-03T04:15:37.918Z,12.33
2018-12-03T04:18:06.881Z,10.00
2018-12-03T04:20:35.915Z,11.20
2018-12-03T04:23:04.847Z,12.20
2018-12-03T04:25:34.291Z,11.35
2018-12-03T04:28:02.959Z,10.33
2018-12-03T04:30:32.218Z,9.73
2018-12-03T04:33:01.821Z,9.63
2018-12-03T04:35:30.663Z,9.30
2018-12-03T04:37:59.607Z,5.50
2018-12-03T04:40:29.159Z,7.00
2018-12-03T04:42:58.412Z,7.40
2018-12-03T04:45:27.957Z,7.87
2018-12-03T04:47:57.224Z,8.23
2018-12-03T04:50:26.758Z,8.00
2018-12-03T04:52:56.036Z,7.60
2018-12-03T04:55:26.097Z,7.00
2018-12-03T04:57:55.084Z,4.53
2018-12-03T05:00:24.399Z,5.73
2018-12-03T05:02:53.864Z,6.60
2018-12-03T05:05:23.146Z,6.37
2018-12-03T05:07:52.688Z,6.35
2018-12-03T05:10:22.039Z,6.60
2018-12-03T05:12:51.298Z,6.73
2018-12-03T05:15:20.846Z,6.10
2018-12-03T05:17:50.100Z,7.17
2018-12-03T05:20:19.369Z,7.70
2018-12-03T05:22:48.506Z,6.90
2018-12-03T05:25:19.510Z,5.27
2018-12-03T05:27:47.249Z,5.50
2018-12-03T05:30:16.484Z,5.83
2018-12-03T05:32:45.753Z,5.30
2018-12-03T05:35:14.690Z,6.73
2018-12-03T05:37:43.984Z,5.20
2018-12-03T05:40:12.688Z,6.83
2018-12-03T05:42:42.277Z,6.30
2018-12-03T05:45:11.512Z,7.35
2018-12-03T05:47:41.068Z,7.62
2018-12-03T05:50:09.790Z,8.43
2018-12-03T05:52:38.853Z,7.17
2018-12-03T05:55:09.608Z,7.90
2018-12-03T05:57:39.160Z,8.53
2018-12-03T06:00:07.620Z,7.00
2018-12-03T06:02:36.889Z,8.63
2018-12-03T06:05:05.592Z,8.20
2018-12-03T06:07:34.904Z,8.30
2018-12-03T06:10:03.597Z,7.87
2018-12-03T06:12:33.160Z,7.80
2018-12-03T06:15:02.430Z,8.70
2018-12-03T06:17:31.956Z,7.63
2018-12-03T06:20:01.224Z,8.87
2018-12-03T06:22:30.728Z,7.35
2018-12-03T06:25:00.142Z,5.27
2018-12-03T06:27:29.426Z,7.90
2018-12-03T06:29:58.962Z,8.35
2018-12-03T06:32:28.268Z,7.60
2018-12-03T06:34:57.522Z,6.90
2018-12-03T06:37:27.067Z,7.37
2018-12-03T06:39:56.335Z,9.07
2018-12-03T06:42:26.491Z,5.62
2018-12-03T06:44:55.686Z,6.58
2018-12-03T06:47:26.151Z,7.45
2018-12-03T06:49:55.407Z,8.03
2018-12-03T06:52:24.824Z,7.90
2018-12-03T06:54:54.140Z,9.40
2018-12-03T06:57:23.459Z,8.97
2018-12-03T06:59:52.916Z,8.47
2018-12-03T07:02:22.906Z,7.83
2018-12-03T07:04:52.340Z,8.13
2018-12-03T07:07:22.079Z,8.15
2018-12-03T07:09:51.334Z,9.77
2018-12-03T07:12:20.612Z,8.13
2018-12-03T07:14:50.138Z,8.00
2018-12-03T07:17:19.134Z,6.97
2018-12-03T07:19:48.391Z,4.40
2018-12-03T07:22:18.339Z,5.53
2018-12-03T07:24:46.403Z,4.47
2018-12-03T07:27:15.636Z,6.17
2018-12-03T07:29:45.205Z,6.10
2018-12-03T07:32:14.476Z,4.27
2018-12-03T07:34:43.724Z,4.78
2018-12-03T07:37:13.258Z,6.77
2018-12-03T07:39:42.508Z,6.22
2018-12-03T07:42:12.128Z,6.70
2018-12-03T07:44:41.455Z,6.57
2018-12-03T07:47:10.726Z,5.00
2018-12-03T07:49:40.705Z,6.70
2018-12-03T07:52:10.251Z,6.00
2018-12-03T07:54:39.528Z,6.50
2018-12-03T07:57:08.801Z,6.67
2018-12-03T07:59:38.347Z,6.30
2018-12-03T08:02:07.619Z,6.17
2018-12-03T08:04:36.917Z,6.65
2018-12-03T08:07:06.034Z,6.70
2018-12-03T08:09:35.576Z,5.95
2018-12-03T08:12:04.527Z,6.13
2018-12-03T08:14:34.365Z,6.25
2018-12-03T08:17:03.634Z,5.77
2018-12-03T08:19:33.340Z,6.27
2018-12-03T08:22:02.612Z,5.43
2018-12-03T08:24:31.871Z,6.80
2018-12-03T08:27:01.465Z,4.53
2018-12-03T08:29:31.738Z,5.25
2018-12-03T08:32:01.331Z,3.73
2018-12-03T08:34:30.592Z,5.22
2018-12-03T08:36:59.872Z,5.17
2018-12-03T08:39:29.419Z,4.53
2018-12-03T08:41:58.830Z,4.90
2018-12-03T08:44:27.576Z,4.73
2018-12-03T08:46:56.612Z,4.40
2018-12-03T08:49:26.724Z,5.67
2018-12-03T08:51:55.988Z,4.80
2018-12-03T08:54:26.518Z,4.50
2018-12-03T08:56:55.452Z,4.60
2018-12-03T08:59:24.465Z,5.23
2018-12-03T09:01:53.508Z,4.97
2018-12-03T09:04:22.764Z,4.93
2018-12-03T09:06:52.027Z,4.50
2018-12-03T09:09:21.517Z,5.00
2018-12-03T09:11:51.003Z,5.27
2018-12-03T09:14:20.228Z,4.90
2018-12-03T09:16:49.262Z,4.67
2018-12-03T09:19:18.568Z,5.40
2018-12-03T09:21:47.840Z,6.33
2018-12-03T09:24:17.562Z,4.80
2018-12-03T09:26:46.492Z,5.60
2018-12-03T09:29:15.432Z,6.20
2018-12-03T09:31:44.692Z,4.73
2018-12-03T09:34:14.078Z,5.77
2018-12-03T09:36:43.637Z,4.90
2018-12-03T09:39:12.332Z,4.70
2018-12-03T09:41:41.797Z,4.30
2018-12-03T09:44:11.066Z,4.70
2018-12-03T09:46:40.607Z,5.10
2018-12-03T09:49:10.052Z,3.53
2018-12-03T09:51:39.613Z,4.65
2018-12-03T09:54:08.304Z,4.60
2018-12-03T09:56:37.298Z,4.60
2018-12-03T09:59:06.035Z,4.23
2018-12-03T10:01:35.293Z,4.70
2018-12-03T10:04:04.113Z,5.53
2018-12-03T10:06:33.554Z,5.55
2018-12-03T10:09:02.596Z,4.37
2018-12-03T10:11:32.688Z,4.55
2018-12-03T10:14:01.679Z,4.70
2018-12-03T10:16:30.940Z,4.10
2018-12-03T10:19:00.489Z,5.30
2018-12-03T10:21:29.747Z,5.00
2018-12-03T10:23:59.020Z,6.00
2018-12-03T10:26:28.282Z,5.13
2018-12-03T10:28:57.283Z,5.17
2018-12-03T10:31:27.132Z,5.03
2018-12-03T10:33:56.692Z,4.37
2018-12-03T10:36:25.676Z,5.00
2018-12-03T10:38:54.948Z,6.30
2018-12-03T10:41:24.254Z,5.43
2018-12-03T10:43:53.420Z,4.70
2018-12-03T10:46:22.881Z,5.00
2018-12-03T10:48:51.797Z,3.47
2018-12-03T10:51:20.903Z,5.33
2018-12-03T10:53:50.180Z,5.57
2018-12-03T10:56:19.381Z,4.33
2018-12-03T10:58:48.669Z,3.72
2018-12-03T11:01:24.271Z,5.30
2018-12-03T11:03:58.867Z,4.40
2018-12-03T11:06:27.565Z,4.87
2018-12-03T11:08:56.499Z,6.50
2018-12-03T11:11:27.071Z,5.10
2018-12-03T11:13:55.834Z,5.12
2018-12-03T11:16:24.883Z,4.60
2018-12-03T11:18:54.149Z,3.63
2018-12-03T11:21:23.120Z,4.90
2018-12-03T11:23:52.348Z,5.55
2018-12-03T11:26:21.505Z,4.97
2018-12-03T11:28:50.471Z,4.80
2018-12-03T11:31:19.649Z,4.60
2018-12-03T11:33:48.752Z,3.80
2018-12-03T11:36:18.315Z,4.80
2018-12-03T11:38:47.337Z,5.40
2018-12-03T11:41:16.503Z,5.70
2018-12-03T11:43:45.782Z,4.70
2018-12-03T11:46:15.466Z,6.20
2018-12-03T11:48:43.962Z,6.33
2018-12-03T11:51:13.088Z,5.83
2018-12-03T11:53:42.011Z,3.20
2018-12-03T11:56:11.293Z,4.10
2018-12-03T11:58:40.623Z,4.90
2018-12-03T12:01:09.916Z,5.10
2018-12-03T12:03:42.739Z,3.13
2018-12-03T12:06:08.210Z,6.80
2018-12-03T12:08:37.810Z,4.80
2018-12-03T12:11:06.739Z,4.70
2018-12-03T12:13:35.699Z,4.77
2018-12-03T12:16:04.448Z,4.83
2018-12-03T12:18:33.659Z,3.98
2018-12-03T12:21:02.776Z,4.30
2018-12-03T12:23:32.134Z,3.40
2018-12-03T12:26:01.400Z,3.53
2018-12-03T12:28:30.906Z,3.25
2018-12-03T12:30:59.850Z,2.97
2018-12-03T12:33:29.196Z,3.40
2018-12-03T12:35:58.215Z,3.37
2018-12-03T12:38:27.481Z,4.60
2018-12-03T12:40:56.647Z,3.80
2018-12-03T12:43:27.247Z,4.00
2018-12-03T12:45:56.279Z,4.23
2018-12-03T12:48:26.559Z,3.77
2018-12-03T12:50:55.849Z,4.10
2018-12-03T12:53:25.099Z,3.03
2018-12-03T12:55:54.488Z,4.00
2018-12-03T12:58:24.043Z,3.72
2018-12-03T13:00:53.309Z,5.10
2018-12-03T13:03:22.568Z,3.80
2018-12-03T13:05:52.068Z,3.43
2018-12-03T13:08:21.327Z,4.00
2018-12-03T13:10:50.259Z,5.40
2018-12-03T13:13:19.520Z,5.47
2018-12-03T13:15:50.657Z,4.57
2018-12-03T13:18:20.148Z,3.97
2018-12-03T13:20:49.415Z,2.70
2018-12-03T13:23:18.960Z,4.10
2018-12-03T13:25:48.221Z,4.60
2018-12-03T13:28:17.533Z,4.27
2018-12-03T13:30:46.756Z,4.27
2018-12-03T13:33:15.744Z,3.53
2018-12-03T13:35:45.068Z,4.30
2018-12-03T13:38:14.323Z,4.90
2018-12-03T13:40:43.589Z,3.87
2018-12-03T13:43:12.817Z,3.87
2018-12-03T13:45:42.388Z,4.27
2018-12-03T13:48:11.639Z,4.67
2018-12-03T13:50:41.388Z,4.17
2018-12-03T13:53:10.780Z,4.50
2018-12-03T13:55:40.479Z,5.42
2018-12-03T13:58:09.741Z,5.33
2018-12-03T14:00:39.307Z,4.75
2018-12-03T14:03:08.354Z,5.57
2018-12-03T14:05:39.012Z,6.47
2018-12-03T14:08:08.435Z,8.80
2018-12-03T14:10:37.149Z,11.00
2018-12-03T14:13:05.842Z,11.60
2018-12-03T14:15:34.841Z,10.20
2018-12-03T14:18:03.645Z,7.97
2018-12-03T14:20:33.194Z,5.62
2018-12-03T14:23:01.911Z,6.40
2018-12-03T14:25:31.208Z,5.30
2018-12-03T14:28:00.463Z,5.20
2018-12-03T14:30:29.403Z,5.47
2018-12-03T14:32:58.334Z,7.20
2018-12-03T14:35:27.821Z,7.20
2018-12-03T14:37:57.201Z,9.33
2018-12-03T14:40:27.332Z,10.38
2018-12-03T14:42:56.594Z,10.43
2018-12-03T14:45:27.196Z,6.42
2018-12-03T14:47:56.138Z,6.30
2018-12-03T14:50:25.394Z,6.43
2018-12-03T14:52:54.638Z,5.93
2018-12-03T14:55:23.904Z,5.40
2018-12-03T14:57:53.445Z,7.67
2018-12-03T15:00:22.702Z,7.53
2018-12-03T15:02:52.262Z,6.63
2018-12-03T15:05:21.539Z,5.93
2018-12-03T15:07:50.800Z,6.30
2018-12-03T15:10:20.364Z,7.20
2018-12-03T15:12:49.641Z,6.60
2018-12-03T15:15:18.878Z,7.30
2018-12-03T15:17:48.036Z,6.50
2018-12-03T15:20:16.966Z,7.07
2018-12-03T15:22:46.315Z,7.33
2018-12-03T15:25:15.570Z,7.60
2018-12-03T15:27:44.842Z,8.17
2018-12-03T15:30:14.398Z,7.90
2018-12-03T15:32:43.844Z,6.80
2018-12-03T15:35:13.029Z,8.07
2018-12-03T15:37:42.649Z,9.20
2018-12-03T15:40:11.331Z,8.77
2018-12-03T15:42:40.644Z,9.53
2018-12-03T15:45:10.567Z,11.10
2018-12-03T15:47:39.650Z,12.20
2018-12-03T15:50:08.586Z,11.13
2018-12-03T15:52:37.868Z,10.40
2018-12-03T15:55:07.161Z,12.37
2018-12-03T15:57:36.183Z,12.20
2018-12-03T16:00:04.884Z,12.20
2018-12-03T16:02:34.449Z,11.68
2018-12-03T16:05:03.492Z,11.20
2018-12-03T16:07:33.041Z,10.40
2018-12-03T16:10:02.584Z,11.73
2018-12-03T16:12:31.849Z,9.80
2018-12-03T16:15:01.155Z,11.00
2018-12-03T16:17:30.716Z,11.13
2018-12-03T16:20:00.000Z,11.30
2018-12-03T16:22:29.825Z,11.37
2018-12-03T16:24:59.094Z,9.77
2018-12-03T16:27:28.658Z,11.13
2018-12-03T16:29:57.941Z,10.00
2018-12-03T16:32:27.871Z,8.75
2018-12-03T16:34:56.868Z,9.30
2018-12-03T16:37:28.031Z,9.40
2018-12-03T16:39:57.612Z,9.88
2018-12-03T16:42:27.869Z,9.85
2018-12-03T16:44:56.801Z,9.80
2018-12-03T16:47:26.101Z,8.93
2018-12-03T16:49:55.368Z,10.37
2018-12-03T16:52:24.316Z,9.40
2018-12-03T16:54:53.608Z,8.13
2018-12-03T16:57:22.896Z,9.23
2018-12-03T16:59:53.039Z,10.27
2018-12-03T17:02:22.590Z,9.03
2018-12-03T17:04:51.844Z,9.83
2018-12-03T17:07:20.812Z,9.63
2018-12-03T17:09:50.064Z,8.17
2018-12-03T17:12:18.504Z,9.03
2018-12-03T17:14:48.132Z,7.80
2018-12-03T17:17:17.140Z,7.50
2018-12-03T17:20:03.356Z,7.40
2018-12-03T17:22:47.451Z,7.90
2018-12-03T17:25:16.716Z,6.80
2018-12-03T17:27:45.655Z,6.87
2018-12-03T17:30:24.209Z,6.73
2018-12-03T17:32:53.179Z,5.30
2018-12-03T17:35:22.610Z,6.37
2018-12-03T17:37:51.319Z,6.80
2018-12-03T17:40:22.001Z,5.97
2018-12-03T17:42:50.966Z,6.30
2018-12-03T17:45:20.213Z,6.30
2018-12-03T17:47:49.708Z,6.53
2018-12-03T17:50:18.631Z,6.60
2018-12-03T17:52:47.895Z,7.83
2018-12-03T17:55:17.168Z,6.73
2018-12-03T17:57:46.148Z,7.63
2018-12-03T18:00:15.625Z,7.20
2018-12-03T18:02:45.873Z,7.40
2018-12-03T18:05:15.144Z,6.60
2018-12-03T18:07:44.957Z,7.60
2018-12-03T18:10:15.480Z,8.27
2018-12-03T18:12:43.213Z,7.60
2018-12-03T18:15:12.799Z,9.43
2018-12-03T18:17:42.056Z,8.73
2018-12-03T18:20:11.066Z,9.10
2018-12-03T18:22:40.920Z,11.12
2018-12-03T18:25:10.272Z,10.93
2018-12-03T18:27:40.006Z,9.83
2018-12-03T18:30:08.935Z,11.80
2018-12-03T18:32:38.199Z,11.20
2018-12-03T18:35:07.445Z,10.20
2018-12-03T18:37:36.773Z,11.90
2018-12-03T18:40:05.752Z,11.67
2018-12-03T18:42:35.175Z,8.97
2018-12-03T18:45:04.172Z,16.32
2018-12-03T18:47:34.100Z,12.93
2018-12-03T18:50:02.806Z,13.43
2018-12-03T18:52:32.063Z,13.13
2018-12-03T18:55:02.178Z,13.87
2018-12-03T18:57:31.739Z,13.38
2018-12-03T19:00:01.391Z,14.00
2018-12-03T19:02:30.808Z,14.23
2018-12-03T19:04:59.871Z,15.93
2018-12-03T19:07:29.368Z,27.07
2018-12-03T19:09:58.929Z,19.17
2018-12-03T19:12:28.361Z,14.30
2018-12-03T19:14:57.892Z,10.67
2018-12-03T19:17:28.212Z,3.50
2018-12-03T19:19:57.484Z,9.70
2018-12-03T19:22:28.181Z,3.25
2018-12-03T19:24:57.626Z,2.43
2018-12-03T19:27:28.320Z,2.27
2018-12-03T19:29:57.860Z,1.50
2018-12-03T19:32:28.230Z,8.53
2018-12-03T19:34:57.387Z,1.70
2018-12-03T19:37:26.375Z,2.20
2018-12-03T19:39:55.971Z,1.80
2018-12-03T19:42:25.242Z,2.17
2018-12-03T19:44:54.782Z,5.75
2018-12-03T19:47:24.060Z,4.53
2018-12-03T19:49:53.313Z,2.33
2018-12-03T19:52:22.461Z,1.90
2018-12-03T19:54:52.000Z,1.90
2018-12-03T19:57:20.685Z,2.47
2018-12-03T19:59:49.774Z,3.30
2018-12-03T20:02:19.614Z,7.40
2018-12-03T20:04:50.628Z,7.67
2018-12-03T20:07:19.435Z,7.80
2018-12-03T20:09:47.849Z,9.60
2018-12-03T20:12:17.143Z,9.87
2018-12-03T20:14:46.401Z,10.90
2018-12-03T20:17:15.123Z,12.07
2018-12-03T20:19:44.056Z,12.00
2018-12-03T20:22:13.327Z,13.40
2018-12-03T20:24:42.596Z,13.45
2018-12-03T20:27:11.770Z,16.40
2018-12-03T20:29:41.093Z,17.80
2018-12-03T20:32:09.804Z,18.80
2018-12-03T20:34:38.738Z,20.97
2018-12-03T20:37:07.483Z,18.93
2018-12-03T20:39:36.454Z,16.73
2018-12-03T20:42:05.739Z,17.17
2018-12-03T20:44:36.102Z,18.10
2018-12-03T20:47:05.048Z,17.03
2018-12-03T20:49:34.162Z,18.65
2018-12-03T20:52:02.656Z,17.93
2018-12-03T20:54:32.158Z,13.62
2018-12-03T20:57:01.429Z,16.90
2018-12-03T20:59:30.983Z,18.00
2018-12-03T21:01:59.920Z,16.50
2018-12-03T21:04:29.502Z,9.83
2018-12-03T21:06:58.809Z,13.10
2018-12-03T21:09:28.198Z,10.67
2018-12-03T21:11:57.945Z,12.70
2018-12-03T21:14:28.426Z,13.83
2018-12-03T21:16:57.688Z,11.80
2018-12-03T21:19:29.462Z,12.34
2018-12-03T21:21:58.783Z,12.87
2018-12-03T21:24:28.556Z,13.30
2018-12-03T21:26:58.111Z,13.28
2018-12-03T21:29:28.536Z,14.40
2018-12-03T21:31:57.807Z,13.77
2018-12-03T21:34:28.485Z,12.93
2018-12-03T21:36:58.043Z,14.68
2018-12-03T21:39:28.257Z,12.80
2018-12-03T21:41:57.196Z,13.10
2018-12-03T21:44:26.481Z,12.83
2018-12-03T21:46:55.765Z,12.87
2018-12-03T21:49:25.299Z,15.33
2018-12-03T21:51:54.195Z,14.00
2018-12-03T21:54:23.485Z,13.10
2018-12-03T21:56:53.256Z,14.10
2018-12-03T21:59:23.521Z,13.23
2018-12-03T22:01:53.102Z,13.10
2018-12-03T22:04:22.376Z,5.60
2018-12-03T22:06:51.294Z,4.83
2018-12-03T22:09:20.572Z,4.90
2018-12-03T22:11:49.499Z,5.00
2018-12-03T22:14:18.750Z,5.53
2018-12-03T22:16:48.267Z,4.43
2018-12-03T22:19:17.909Z,4.10
2018-12-03T22:21:47.277Z,3.30
2018-12-03T22:24:16.575Z,2.90
2018-12-03T22:26:45.829Z,2.27
2018-12-03T22:29:15.276Z,2.13
2018-12-03T22:31:44.539Z,2.40
2018-12-03T22:34:13.812Z,2.50
2018-12-03T22:36:43.131Z,2.52
2018-12-03T22:39:12.057Z,2.50
2018-12-03T22:41:41.628Z,2.67
2018-12-03T22:44:11.358Z,2.07
2018-12-03T22:46:40.906Z,2.10
2018-12-03T22:49:10.483Z,2.43
2018-12-03T22:51:39.795Z,2.07
2018-12-03T22:54:18.606Z,1.93
2018-12-03T22:56:47.856Z,2.57
2018-12-03T22:59:17.457Z,2.20
2018-12-03T23:01:46.713Z,1.70
2018-12-03T23:05:51.539Z,2.90
2018-12-03T23:08:20.816Z,1.87
2018-12-03T23:10:51.020Z,1.90
2018-12-03T23:13:20.096Z,2.53
2018-12-03T23:15:49.389Z,2.60
2018-12-03T23:18:18.660Z,2.37
2018-12-03T23:20:47.911Z,2.60
2018-12-03T23:23:17.493Z,2.10
2018-12-03T23:25:47.475Z,2.00
2018-12-03T23:28:16.736Z,2.40
2018-12-03T23:30:45.944Z,2.67
2018-12-03T23:33:15.400Z,2.17
2018-12-03T23:35:44.940Z,2.30
2018-12-03T23:38:14.511Z,2.30
2018-12-03T23:40:43.765Z,2.50
2018-12-03T23:43:12.954Z,1.70
2018-12-03T23:45:42.402Z,2.30
2018-12-03T23:48:11.660Z,2.23
2018-12-03T23:50:41.061Z,1.72
2018-12-03T23:53:10.478Z,2.23
2018-12-03T23:55:39.715Z,2.13
2018-12-03T23:58:08.934Z,2.27
